Hlavní strana
METAR-TAF:

METAR-TAF

Letiště :

Oral, Kazachstán

zeměpisná šířka: 51-15N, zeměpisná délka: 051-17E, výška: 36 m

Aktuální stav počasí

Zpráva byla vytvořena před 44 minutami, v 21:00 UTC
Severovýchodní vítr 16 kt
Teplota -6°C
Vlhkost vzduchu 86%
Tlak 1034 hPa
Viditelnost 10 km a více
Zataženo ve výšce 3900 ft

METAR: UARR 192100Z 05008MPS 9999 OVC039 M06/M08 Q1034 R04/710165 NOSIG RMK QFE772/1029

Čas: 02:44 (21:44 UTC)

Předpověď počasí

Zpráva byla vytvořena před 1 hodinou a 43 minutami, v 20:01 UTC
Předpověď platná od 19 v 21 UTC do 20 v 06 UTC
Severovýchodní vítr 14 kt s nárazy do 23 kt
Viditelnost: 3100 m
Oblačno až skoro zataženo ve výšce 1100 ft
kouřmo

TAF: UARR 192001Z 1921/2006 05007G12MPS 3100 BR BKN011

Stav a předpovědi počasí z více než 4 000 letišť (zprávy METAR a TAF).

Červené a žluté tečky na mapě představují dostupné meteorologické stanice.

Když kurzor umístíte na tečku, zobrazí se název stanice.

Pak kliknutím zobrazíte stav a předpověď počasí.

Chcete-li změnit mapu, kliknutím na zelené tlačítko se znaménkem +mapu přiblížíte, kliknutím na zelené tlačítko se znaménkem – mapu oddálíte a kliknutím na zelené šipky přejdete na sousední mapy.


METAR-TAF: